createdAt,value
2023-05-25T00:00:11.250Z,7.54
2023-05-25T00:02:39.595Z,7.54
2023-05-25T00:05:09.503Z,7.37
2023-05-25T00:07:36.086Z,7.44
2023-05-25T00:10:04.704Z,7.45
2023-05-25T00:12:31.531Z,7.50
2023-05-25T00:14:58.174Z,7.40
2023-05-25T00:17:25.067Z,7.39
2023-05-25T00:19:51.698Z,7.48
2023-05-25T00:22:18.233Z,7.39
2023-05-25T00:24:44.699Z,7.36
2023-05-25T00:27:11.246Z,7.41
2023-05-25T00:29:37.695Z,7.24
2023-05-25T00:32:04.833Z,7.24
2023-05-25T00:34:31.289Z,7.14
2023-05-25T00:36:57.905Z,7.09
2023-05-25T00:39:24.387Z,7.25
2023-05-25T00:41:50.973Z,7.14
2023-05-25T00:44:22.173Z,7.08
2023-05-25T00:46:50.975Z,6.88
2023-05-25T00:49:19.525Z,7.01
2023-05-25T00:51:47.693Z,6.69
2023-05-25T00:54:16.154Z,6.98
2023-05-25T00:56:58.080Z,6.98
2023-05-25T00:59:35.496Z,6.89
2023-05-25T01:02:07.751Z,6.85
2023-05-25T01:04:38.140Z,6.75
2023-05-25T01:07:09.978Z,6.77
2023-05-25T01:09:41.056Z,6.76
2023-05-25T01:12:09.278Z,6.69
2023-05-25T01:14:38.736Z,6.60
2023-05-25T01:17:06.528Z,6.17
2023-05-25T01:19:33.839Z,6.32
2023-05-25T01:22:07.254Z,6.41
2023-05-25T01:24:53.982Z,6.36
2023-05-25T01:27:32.414Z,6.46
2023-05-25T01:29:59.809Z,6.01
2023-05-25T01:32:27.108Z,6.40
2023-05-25T01:34:56.055Z,6.29
2023-05-25T01:37:24.635Z,6.27
2023-05-25T01:39:51.112Z,6.27
2023-05-25T01:42:17.743Z,6.22
2023-05-25T01:44:44.804Z,6.27
2023-05-25T01:47:26.586Z,6.16
2023-05-25T01:50:00.161Z,6.22
2023-05-25T01:52:30.538Z,6.21
2023-05-25T01:55:05.501Z,6.23
2023-05-25T01:57:37.356Z,6.11
2023-05-25T02:00:04.952Z,6.15
2023-05-25T02:02:42.862Z,6.10
2023-05-25T02:05:11.110Z,6.17
2023-05-25T02:07:38.296Z,6.12
2023-05-25T02:10:05.430Z,6.21
2023-05-25T02:12:32.112Z,6.14
2023-05-25T02:14:58.710Z,6.20
2023-05-25T02:17:27.947Z,6.15
2023-05-25T02:19:54.659Z,6.11
2023-05-25T02:22:22.264Z,6.18
2023-05-25T02:24:48.847Z,6.20
2023-05-25T02:27:15.519Z,6.23
2023-05-25T02:29:42.212Z,6.09
2023-05-25T02:32:09.841Z,6.08
2023-05-25T02:34:36.314Z,6.00
2023-05-25T02:37:02.825Z,6.09
2023-05-25T02:39:29.274Z,6.05
2023-05-25T02:41:58.275Z,5.99
2023-05-25T02:44:25.632Z,5.82
2023-05-25T02:46:52.307Z,5.81
2023-05-25T02:49:18.964Z,5.93
2023-05-25T02:51:45.618Z,6.12
2023-05-25T02:54:12.151Z,6.07
2023-05-25T02:56:39.608Z,6.09
2023-05-25T02:59:07.653Z,6.18
2023-05-25T03:01:35.508Z,6.26
2023-05-25T03:04:02.299Z,6.27
2023-05-25T03:06:33.537Z,6.18
2023-05-25T03:09:09.601Z,6.15
2023-05-25T03:11:37.788Z,5.99
2023-05-25T03:14:04.629Z,5.85
2023-05-25T03:16:36.665Z,5.85
2023-05-25T03:19:05.402Z,5.85
2023-05-25T03:21:33.935Z,5.83
2023-05-25T03:24:00.477Z,5.80
2023-05-25T03:26:27.046Z,5.81
2023-05-25T03:28:54.009Z,5.76
2023-05-25T03:31:23.556Z,5.81
2023-05-25T03:33:50.134Z,5.78
2023-05-25T03:36:18.344Z,5.68
2023-05-25T03:38:45.205Z,5.85
2023-05-25T03:41:11.729Z,5.81
2023-05-25T03:43:38.526Z,5.80
2023-05-25T03:46:06.908Z,5.93
2023-05-25T03:48:33.440Z,5.91
2023-05-25T03:50:59.946Z,6.03
2023-05-25T03:53:26.971Z,5.91
2023-05-25T03:55:53.521Z,6.26
2023-05-25T03:58:20.096Z,6.34
2023-05-25T04:00:49.114Z,6.38
2023-05-25T04:03:16.096Z,6.62
2023-05-25T04:05:43.597Z,6.60
2023-05-25T04:08:10.744Z,6.86
2023-05-25T04:10:37.440Z,6.91
2023-05-25T04:13:03.911Z,6.94
2023-05-25T04:15:30.743Z,7.07
2023-05-25T04:18:08.796Z,7.01
2023-05-25T04:20:36.625Z,6.93
2023-05-25T04:23:07.611Z,7.03
2023-05-25T04:25:34.975Z,7.02
2023-05-25T04:28:01.470Z,7.27
2023-05-25T04:30:45.794Z,7.53
2023-05-25T04:33:29.409Z,7.75
2023-05-25T04:36:03.885Z,7.89
2023-05-25T04:38:30.811Z,8.17
2023-05-25T04:41:01.953Z,8.36
2023-05-25T04:43:29.915Z,8.41
2023-05-25T04:45:59.652Z,8.59
2023-05-25T04:48:28.519Z,8.71
2023-05-25T04:50:58.119Z,8.40
2023-05-25T04:53:24.784Z,8.15
2023-05-25T04:55:51.767Z,8.05
2023-05-25T04:58:18.421Z,7.74
2023-05-25T05:00:45.504Z,7.80
2023-05-25T05:03:13.466Z,7.29
2023-05-25T05:05:40.224Z,7.94
2023-05-25T05:08:10.582Z,8.02
2023-05-25T05:10:37.355Z,8.36
2023-05-25T05:13:03.831Z,8.20
2023-05-25T05:15:30.904Z,8.61
2023-05-25T05:17:59.385Z,8.79
2023-05-25T05:20:25.983Z,9.03
2023-05-25T05:22:53.393Z,9.26
2023-05-25T05:25:20.063Z,9.27
2023-05-25T05:27:47.025Z,9.35
2023-05-25T05:30:22.239Z,9.77
2023-05-25T05:32:48.782Z,10.06
2023-05-25T05:35:16.304Z,10.11
2023-05-25T05:37:46.988Z,10.50
2023-05-25T05:40:13.760Z,10.68
2023-05-25T05:42:42.399Z,10.83
2023-05-25T05:45:10.230Z,10.80
2023-05-25T05:47:37.278Z,11.10
2023-05-25T05:50:04.256Z,11.25
2023-05-25T05:52:30.895Z,11.35
2023-05-25T05:54:57.450Z,11.20
2023-05-25T05:57:23.991Z,11.52
2023-05-25T05:59:50.692Z,11.54
2023-05-25T06:02:18.229Z,11.45
2023-05-25T06:04:45.112Z,11.52
2023-05-25T06:07:12.054Z,11.72
2023-05-25T06:09:38.660Z,12.03
2023-05-25T06:12:06.177Z,11.59
2023-05-25T06:14:33.623Z,11.74
2023-05-25T06:17:02.826Z,12.03
2023-05-25T06:19:29.594Z,12.22
2023-05-25T06:21:56.859Z,12.35
2023-05-25T06:24:23.304Z,12.36
2023-05-25T06:26:49.890Z,12.16
2023-05-25T06:29:17.390Z,12.11
2023-05-25T06:31:44.375Z,12.31
2023-05-25T06:34:10.837Z,12.30
2023-05-25T06:36:38.020Z,12.18
2023-05-25T06:39:04.516Z,12.00
2023-05-25T06:41:30.994Z,12.20
2023-05-25T06:43:57.798Z,12.13
2023-05-25T06:46:33.003Z,12.40
2023-05-25T06:49:00.893Z,12.08
2023-05-25T06:51:27.802Z,12.02
2023-05-25T06:53:57.345Z,11.87
2023-05-25T06:56:24.473Z,12.46
2023-05-25T06:58:51.134Z,12.40
2023-05-25T07:01:17.829Z,12.31
2023-05-25T07:03:44.288Z,12.08
2023-05-25T07:06:12.179Z,12.10
2023-05-25T07:08:38.871Z,11.56
2023-05-25T07:11:05.486Z,11.63
2023-05-25T07:13:31.934Z,11.66
2023-05-25T07:15:58.400Z,11.58
2023-05-25T07:18:26.214Z,11.74
2023-05-25T07:20:53.444Z,11.37
2023-05-25T07:23:20.040Z,11.77
2023-05-25T07:25:46.965Z,11.80
2023-05-25T07:28:13.596Z,11.67
2023-05-25T07:30:40.827Z,11.77
2023-05-25T07:33:07.332Z,11.83
2023-05-25T07:35:35.473Z,11.91
2023-05-25T07:38:06.719Z,12.06
2023-05-25T07:40:33.308Z,12.50
2023-05-25T07:42:59.768Z,12.31
2023-05-25T07:45:26.412Z,12.63
2023-05-25T07:47:52.941Z,12.62
2023-05-25T07:50:19.730Z,13.09
2023-05-25T07:52:46.435Z,12.65
2023-05-25T07:55:13.090Z,13.06
2023-05-25T07:57:39.584Z,13.79
2023-05-25T08:00:08.281Z,13.72
2023-05-25T08:02:41.078Z,13.24
2023-05-25T08:05:08.270Z,13.36
2023-05-25T08:07:34.800Z,13.10
2023-05-25T08:10:01.973Z,13.73
2023-05-25T08:12:46.197Z,13.48
2023-05-25T08:15:15.122Z,13.37
2023-05-25T08:17:41.822Z,13.10
2023-05-25T08:20:09.365Z,13.50
2023-05-25T08:22:36.033Z,13.35
2023-05-25T08:25:04.250Z,12.92
2023-05-25T08:27:31.782Z,13.06
2023-05-25T08:30:00.573Z,12.83
2023-05-25T08:32:27.155Z,13.18
2023-05-25T08:34:53.626Z,13.45
2023-05-25T08:37:22.528Z,13.70
2023-05-25T08:39:49.209Z,13.84
2023-05-25T08:42:15.811Z,12.71
2023-05-25T08:44:42.731Z,13.23
2023-05-25T08:47:12.164Z,13.55
2023-05-25T08:49:39.511Z,13.89
2023-05-25T08:52:10.571Z,14.22
2023-05-25T08:54:38.085Z,14.05
2023-05-25T08:57:16.798Z,14.31
2023-05-25T08:59:50.422Z,14.76
2023-05-25T09:02:22.972Z,15.19
2023-05-25T09:04:49.564Z,15.47
2023-05-25T09:07:16.508Z,15.05
2023-05-25T09:09:43.811Z,14.88
2023-05-25T09:12:10.909Z,14.58
2023-05-25T09:14:38.011Z,14.57
2023-05-25T09:17:04.766Z,14.91
2023-05-25T09:19:31.313Z,15.02
2023-05-25T09:22:13.338Z,15.30
2023-05-25T09:24:44.088Z,15.58
2023-05-25T09:27:12.062Z,16.07
2023-05-25T09:29:38.668Z,16.17
2023-05-25T09:32:06.758Z,15.72
2023-05-25T09:34:35.995Z,15.12
2023-05-25T09:37:17.324Z,14.94
2023-05-25T09:39:44.543Z,14.83
2023-05-25T09:42:11.971Z,15.22
2023-05-25T09:44:39.621Z,15.28
2023-05-25T09:47:06.473Z,15.22
2023-05-25T09:49:33.095Z,15.80
2023-05-25T09:52:00.652Z,15.77
2023-05-25T09:54:27.488Z,15.32
2023-05-25T09:56:54.448Z,15.07
2023-05-25T09:59:23.376Z,15.32
2023-05-25T10:01:53.707Z,15.78
2023-05-25T10:04:21.065Z,15.78
2023-05-25T10:06:51.580Z,15.34
2023-05-25T10:09:19.768Z,15.52
2023-05-25T10:11:47.185Z,15.45
2023-05-25T10:14:16.800Z,15.15
2023-05-25T10:16:48.105Z,15.28
2023-05-25T10:19:37.183Z,15.85
2023-05-25T10:22:08.043Z,15.36
2023-05-25T10:25:04.726Z,15.45
2023-05-25T10:28:00.217Z,15.77
2023-05-25T10:30:30.153Z,15.34
2023-05-25T10:32:57.380Z,15.11
2023-05-25T10:35:24.490Z,15.09
2023-05-25T10:37:52.751Z,15.35
2023-05-25T10:40:22.048Z,15.17
2023-05-25T10:42:51.209Z,15.32
2023-05-25T10:45:18.627Z,15.92
2023-05-25T10:47:46.447Z,16.09
2023-05-25T10:50:27.017Z,15.89
2023-05-25T10:53:07.262Z,15.56
2023-05-25T10:55:49.217Z,15.69
2023-05-25T10:58:17.359Z,15.91
2023-05-25T11:00:56.980Z,15.60
2023-05-25T11:04:02.632Z,15.41
2023-05-25T11:06:40.202Z,15.35
2023-05-25T11:09:07.239Z,15.60
2023-05-25T11:11:43.164Z,15.65
2023-05-25T11:14:31.974Z,15.59
2023-05-25T11:17:20.705Z,15.67
2023-05-25T11:19:51.384Z,15.59
2023-05-25T11:22:21.655Z,16.11
2023-05-25T11:24:53.756Z,15.97
2023-05-25T11:27:23.938Z,15.67
2023-05-25T11:29:51.999Z,15.62
2023-05-25T11:32:18.713Z,15.74
2023-05-25T11:34:47.045Z,15.76
2023-05-25T11:37:17.122Z,15.69
2023-05-25T11:39:48.242Z,15.67
2023-05-25T11:42:15.308Z,15.85
2023-05-25T11:44:42.208Z,15.81
2023-05-25T11:47:18.838Z,15.82
2023-05-25T11:49:47.076Z,16.06
2023-05-25T11:52:15.128Z,16.04
2023-05-25T11:54:42.184Z,16.13
2023-05-25T11:57:18.700Z,16.13
2023-05-25T11:59:56.057Z,16.26
2023-05-25T12:02:23.858Z,16.30
2023-05-25T12:04:57.463Z,16.10
2023-05-25T12:07:26.323Z,16.20
2023-05-25T12:10:04.760Z,16.11
2023-05-25T12:12:40.651Z,15.86
2023-05-25T12:15:12.014Z,15.98
2023-05-25T12:17:41.734Z,16.01
2023-05-25T12:20:10.945Z,15.82
2023-05-25T12:22:39.341Z,16.41
2023-05-25T12:25:07.590Z,16.16
2023-05-25T12:27:34.509Z,16.09
2023-05-25T12:30:00.977Z,16.06
2023-05-25T12:32:27.514Z,16.25
2023-05-25T12:35:02.828Z,16.84
2023-05-25T12:37:29.728Z,17.01
2023-05-25T12:39:59.460Z,16.89
2023-05-25T12:42:27.509Z,16.76
2023-05-25T12:44:57.923Z,16.53
2023-05-25T12:47:27.864Z,16.52
2023-05-25T12:50:13.444Z,16.73
2023-05-25T12:52:44.141Z,16.55
2023-05-25T12:55:19.954Z,16.44
2023-05-25T12:57:52.786Z,16.72
2023-05-25T13:00:27.843Z,16.75
2023-05-25T13:02:54.800Z,16.73
2023-05-25T13:05:27.719Z,16.57
2023-05-25T13:07:56.243Z,17.07
2023-05-25T13:10:23.519Z,16.52
2023-05-25T13:12:51.691Z,16.71
2023-05-25T13:15:22.852Z,17.00
2023-05-25T13:17:51.060Z,16.67
2023-05-25T13:20:19.984Z,16.61
2023-05-25T13:22:48.895Z,16.62
2023-05-25T13:25:15.875Z,16.76
2023-05-25T13:27:47.755Z,16.71
2023-05-25T13:30:15.288Z,16.56
2023-05-25T13:32:45.497Z,16.70
2023-05-25T13:35:18.538Z,16.94
2023-05-25T13:37:47.844Z,16.98
2023-05-25T13:40:14.985Z,17.10
2023-05-25T13:42:41.547Z,17.33
2023-05-25T13:45:08.657Z,17.40
2023-05-25T13:47:35.218Z,17.45
2023-05-25T13:50:01.795Z,17.40
2023-05-25T13:52:28.619Z,17.32
2023-05-25T13:54:55.200Z,17.33
2023-05-25T13:57:22.490Z,17.71
2023-05-25T13:59:49.009Z,17.62
2023-05-25T14:02:15.637Z,17.53
2023-05-25T14:04:42.131Z,17.16
2023-05-25T14:07:08.911Z,17.04
2023-05-25T14:09:35.579Z,16.91
2023-05-25T14:12:03.028Z,17.21
2023-05-25T14:14:32.217Z,17.23
2023-05-25T14:17:00.528Z,17.17
2023-05-25T14:19:27.470Z,17.34
2023-05-25T14:22:11.135Z,17.46
2023-05-25T14:24:38.966Z,17.25
2023-05-25T14:27:07.053Z,17.56
2023-05-25T14:29:33.780Z,17.51
2023-05-25T14:32:00.337Z,17.14
2023-05-25T14:34:26.893Z,17.33
2023-05-25T14:36:53.445Z,17.32
2023-05-25T14:39:19.889Z,17.23
2023-05-25T14:41:46.426Z,17.39
2023-05-25T14:44:12.999Z,17.50
2023-05-25T14:46:39.558Z,17.35
2023-05-25T14:49:06.069Z,17.23
2023-05-25T14:51:32.534Z,17.34
2023-05-25T14:54:01.245Z,17.02
2023-05-25T14:56:28.385Z,17.33
2023-05-25T14:58:54.867Z,17.44
2023-05-25T15:01:23.678Z,17.39
2023-05-25T15:03:51.700Z,17.21
2023-05-25T15:06:18.382Z,17.29
2023-05-25T15:08:44.819Z,17.24
2023-05-25T15:11:11.311Z,17.46
2023-05-25T15:13:38.045Z,17.42
2023-05-25T15:16:04.860Z,17.56
2023-05-25T15:18:31.295Z,17.38
2023-05-25T15:20:58.148Z,17.21
2023-05-25T15:23:24.613Z,17.59
2023-05-25T15:25:51.136Z,17.86
2023-05-25T15:28:17.653Z,18.17
2023-05-25T15:30:44.248Z,17.73
2023-05-25T15:33:13.182Z,17.79
2023-05-25T15:35:39.833Z,17.57
2023-05-25T15:38:06.358Z,17.58
2023-05-25T15:40:32.982Z,17.71
2023-05-25T15:42:59.478Z,17.54
2023-05-25T15:45:26.345Z,17.57
2023-05-25T15:47:52.955Z,17.49
2023-05-25T15:50:19.615Z,17.63
2023-05-25T15:52:46.734Z,17.74
2023-05-25T15:55:13.232Z,17.75
2023-05-25T15:57:39.790Z,17.57
2023-05-25T16:00:06.790Z,17.74
2023-05-25T16:02:33.258Z,17.72
2023-05-25T16:04:59.753Z,17.62
2023-05-25T16:07:26.469Z,17.88
2023-05-25T16:09:53.112Z,18.06
2023-05-25T16:12:19.582Z,17.90
2023-05-25T16:14:46.109Z,17.70
2023-05-25T16:17:12.562Z,17.70
2023-05-25T16:19:39.024Z,17.85
2023-05-25T16:22:05.684Z,18.16
2023-05-25T16:24:33.207Z,18.00
2023-05-25T16:26:59.736Z,18.12
2023-05-25T16:29:26.232Z,18.09
2023-05-25T16:31:54.627Z,17.99
2023-05-25T16:34:21.970Z,17.73
2023-05-25T16:36:48.461Z,17.67
2023-05-25T16:39:15.007Z,17.63
2023-05-25T16:41:41.450Z,17.50
2023-05-25T16:44:08.103Z,17.56
2023-05-25T16:46:34.585Z,17.48
2023-05-25T16:49:01.289Z,17.62
2023-05-25T16:51:27.773Z,17.68
2023-05-25T16:53:54.388Z,17.54
2023-05-25T16:56:21.421Z,17.52
2023-05-25T16:58:47.939Z,17.57
2023-05-25T17:01:14.387Z,17.49
2023-05-25T17:03:41.247Z,17.54
2023-05-25T17:06:08.190Z,17.59
2023-05-25T17:08:36.253Z,17.43
2023-05-25T17:11:02.744Z,16.86
2023-05-25T17:13:29.306Z,17.51
2023-05-25T17:15:55.884Z,17.12
2023-05-25T17:18:22.435Z,17.68
2023-05-25T17:20:49.006Z,17.93
2023-05-25T17:23:18.446Z,17.89
2023-05-25T17:25:45.294Z,17.89
2023-05-25T17:28:11.930Z,17.88
2023-05-25T17:30:38.398Z,17.59
2023-05-25T17:33:04.964Z,17.44
2023-05-25T17:35:31.520Z,17.20
2023-05-25T17:37:57.971Z,17.16
2023-05-25T17:40:24.453Z,17.42
2023-05-25T17:42:50.898Z,17.50
2023-05-25T17:45:17.503Z,17.52
2023-05-25T17:47:43.992Z,17.45
2023-05-25T17:50:10.718Z,17.49
2023-05-25T17:52:37.165Z,17.27
2023-05-25T17:55:05.009Z,17.20
2023-05-25T17:57:31.587Z,17.34
2023-05-25T17:59:58.108Z,17.25
2023-05-25T18:02:24.842Z,16.99
2023-05-25T18:04:51.521Z,17.10
2023-05-25T18:07:19.599Z,17.07
2023-05-25T18:09:46.102Z,17.14
2023-05-25T18:12:12.579Z,17.19
2023-05-25T18:14:39.093Z,17.06
2023-05-25T18:17:05.596Z,16.98
2023-05-25T18:19:32.112Z,16.96
2023-05-25T18:21:58.575Z,17.10
2023-05-25T18:24:25.061Z,17.09
2023-05-25T18:26:51.683Z,17.09
2023-05-25T18:29:18.176Z,16.91
2023-05-25T18:31:47.199Z,16.25
2023-05-25T18:34:14.077Z,16.74
2023-05-25T18:36:40.577Z,16.75
2023-05-25T18:39:07.065Z,16.69
2023-05-25T18:41:33.713Z,16.78
2023-05-25T18:44:00.212Z,16.89
2023-05-25T18:46:28.167Z,16.65
2023-05-25T18:48:55.788Z,16.57
2023-05-25T18:51:25.586Z,16.61
2023-05-25T18:53:52.311Z,16.57
2023-05-25T18:56:19.400Z,16.34
2023-05-25T18:58:46.042Z,16.50
2023-05-25T19:01:12.589Z,16.32
2023-05-25T19:03:39.228Z,16.30
2023-05-25T19:06:05.876Z,16.35
2023-05-25T19:08:32.383Z,16.38
2023-05-25T19:10:58.831Z,16.24
2023-05-25T19:13:25.349Z,16.29
2023-05-25T19:15:51.901Z,16.17
2023-05-25T19:18:18.584Z,16.05
2023-05-25T19:20:45.135Z,16.01
2023-05-25T19:23:11.717Z,16.27
2023-05-25T19:25:38.262Z,16.27
2023-05-25T19:28:04.759Z,16.24
2023-05-25T19:30:31.251Z,16.08
2023-05-25T19:32:57.824Z,16.10
2023-05-25T19:35:24.376Z,16.14
2023-05-25T19:37:50.840Z,16.15
2023-05-25T19:40:17.448Z,16.21
2023-05-25T19:42:44.344Z,16.14
2023-05-25T19:45:11.187Z,16.12
2023-05-25T19:47:37.735Z,16.03
2023-05-25T19:50:04.647Z,15.80
2023-05-25T19:52:31.346Z,16.02
2023-05-25T19:54:57.795Z,16.00
2023-05-25T19:57:26.121Z,15.98
2023-05-25T19:59:52.770Z,15.98
2023-05-25T20:02:20.448Z,15.90
2023-05-25T20:04:47.341Z,15.90
2023-05-25T20:07:13.995Z,15.81
2023-05-25T20:09:41.358Z,15.80
2023-05-25T20:12:08.025Z,15.71
2023-05-25T20:14:34.553Z,15.67
2023-05-25T20:17:01.167Z,15.56
2023-05-25T20:19:27.623Z,15.65
2023-05-25T20:21:54.280Z,15.60
2023-05-25T20:24:21.997Z,15.45
2023-05-25T20:26:48.632Z,15.44
2023-05-25T20:29:15.249Z,15.25
2023-05-25T20:31:41.760Z,15.20
2023-05-25T20:34:08.309Z,15.26
2023-05-25T20:36:34.749Z,15.12
2023-05-25T20:39:02.954Z,14.93
2023-05-25T20:41:29.541Z,14.91
2023-05-25T20:43:56.126Z,14.88
2023-05-25T20:46:22.753Z,14.72
2023-05-25T20:48:49.297Z,14.72
2023-05-25T20:51:15.839Z,14.76
2023-05-25T20:53:42.310Z,14.78
2023-05-25T20:56:08.765Z,14.58
2023-05-25T20:58:37.396Z,14.18
2023-05-25T21:01:03.982Z,14.37
2023-05-25T21:03:30.672Z,14.46
2023-05-25T21:05:57.384Z,14.39
2023-05-25T21:08:24.106Z,14.36
2023-05-25T21:10:50.897Z,14.22
2023-05-25T21:13:17.363Z,14.13
2023-05-25T21:15:44.070Z,13.95
2023-05-25T21:18:10.816Z,13.90
2023-05-25T21:20:38.668Z,13.97
2023-05-25T21:23:05.322Z,13.98
2023-05-25T21:25:32.088Z,13.87
2023-05-25T21:27:58.556Z,13.90
2023-05-25T21:30:25.131Z,14.01
2023-05-25T21:32:51.716Z,14.06
2023-05-25T21:35:18.439Z,13.83
2023-05-25T21:37:45.665Z,13.82
2023-05-25T21:40:12.553Z,13.85
2023-05-25T21:42:39.154Z,13.69
2023-05-25T21:45:06.050Z,13.69
2023-05-25T21:47:32.532Z,13.63
2023-05-25T21:49:59.003Z,13.68
2023-05-25T21:52:25.571Z,13.58
2023-05-25T21:54:52.151Z,13.63
2023-05-25T21:57:18.720Z,13.60
2023-05-25T21:59:45.228Z,13.68
2023-05-25T22:02:11.817Z,13.73
2023-05-25T22:04:38.319Z,13.53
2023-05-25T22:07:04.892Z,13.50
2023-05-25T22:09:31.729Z,13.42
2023-05-25T22:11:58.344Z,12.96
2023-05-25T22:14:24.827Z,12.86
2023-05-25T22:16:51.446Z,13.13
2023-05-25T22:19:18.001Z,13.13
2023-05-25T22:21:44.680Z,13.17
2023-05-25T22:24:11.141Z,13.00
2023-05-25T22:26:37.696Z,12.67
2023-05-25T22:29:04.238Z,12.93
2023-05-25T22:31:30.949Z,12.78
2023-05-25T22:33:57.485Z,12.37
2023-05-25T22:36:23.935Z,12.35
2023-05-25T22:38:50.465Z,12.41
2023-05-25T22:41:16.953Z,12.40
2023-05-25T22:43:43.551Z,11.96
2023-05-25T22:46:10.156Z,12.40
2023-05-25T22:48:36.644Z,12.68
2023-05-25T22:51:03.284Z,12.68
2023-05-25T22:53:29.739Z,12.68
2023-05-25T22:55:56.312Z,12.74
2023-05-25T22:58:22.761Z,12.74
2023-05-25T23:00:49.218Z,12.82
2023-05-25T23:03:15.807Z,12.87
2023-05-25T23:05:42.508Z,12.88
2023-05-25T23:08:09.051Z,12.82
2023-05-25T23:10:35.896Z,12.72
2023-05-25T23:13:02.440Z,12.38
2023-05-25T23:15:30.653Z,12.52
2023-05-25T23:17:57.149Z,12.57
2023-05-25T23:20:23.823Z,12.64
2023-05-25T23:22:50.430Z,12.22
2023-05-25T23:25:17.042Z,12.28
2023-05-25T23:27:43.495Z,12.25
2023-05-25T23:30:10.515Z,12.36
2023-05-25T23:32:37.046Z,12.34
2023-05-25T23:35:04.062Z,12.17
2023-05-25T23:37:30.500Z,12.07
2023-05-25T23:39:57.114Z,12.09
2023-05-25T23:42:23.904Z,12.15
2023-05-25T23:44:50.391Z,12.24
2023-05-25T23:47:16.843Z,12.04
2023-05-25T23:49:43.428Z,12.04
2023-05-25T23:52:09.978Z,11.99
2023-05-25T23:54:36.471Z,12.02
2023-05-25T23:57:03.086Z,12.00
2023-05-25T23:59:29.566Z,12.05
